createdAt,value
2019-05-29T00:02:19.644Z,14.30
2019-05-29T00:04:46.456Z,13.85
2019-05-29T00:07:12.892Z,21.80
2019-05-29T00:09:39.882Z,15.32
2019-05-29T00:12:08.493Z,15.40
2019-05-29T00:14:36.467Z,15.95
2019-05-29T00:17:03.011Z,14.43
2019-05-29T00:19:29.487Z,15.85
2019-05-29T00:21:55.948Z,16.52
2019-05-29T00:24:23.263Z,15.23
2019-05-29T00:26:51.090Z,15.53
2019-05-29T00:29:17.969Z,17.25
2019-05-29T00:31:44.919Z,15.55
2019-05-29T00:34:11.452Z,19.57
2019-05-29T00:36:37.900Z,16.85
2019-05-29T00:39:06.498Z,16.20
2019-05-29T00:41:33.187Z,16.17
2019-05-29T00:43:59.775Z,16.02
2019-05-29T00:46:26.224Z,16.15
2019-05-29T00:48:52.820Z,15.00
2019-05-29T00:51:19.556Z,14.60
2019-05-29T00:53:46.149Z,14.18
2019-05-29T00:56:12.731Z,14.50
2019-05-29T00:58:41.409Z,15.78
2019-05-29T01:01:07.692Z,17.32
2019-05-29T01:03:34.046Z,18.05
2019-05-29T01:06:00.591Z,15.63
2019-05-29T01:08:26.989Z,14.73
2019-05-29T01:10:53.478Z,19.52
2019-05-29T01:13:21.194Z,14.45
2019-05-29T01:15:48.021Z,13.85
2019-05-29T01:18:15.713Z,14.78
2019-05-29T01:20:42.639Z,14.63
2019-05-29T01:23:09.224Z,15.32
2019-05-29T01:25:35.672Z,15.30
2019-05-29T01:28:02.225Z,14.70
2019-05-29T01:30:28.730Z,14.15
2019-05-29T01:32:55.203Z,13.65
2019-05-29T01:35:22.070Z,13.90
2019-05-29T01:37:48.779Z,14.45
2019-05-29T01:40:22.108Z,13.38
2019-05-29T01:42:43.868Z,14.07
2019-05-29T01:45:10.303Z,12.70
2019-05-29T01:47:36.808Z,13.03
2019-05-29T01:50:04.725Z,13.80
2019-05-29T01:52:31.334Z,12.95
2019-05-29T01:54:57.833Z,12.58
2019-05-29T01:57:24.454Z,14.60
2019-05-29T01:59:50.917Z,13.98
2019-05-29T02:02:17.818Z,13.28
2019-05-29T02:04:44.229Z,12.78
2019-05-29T02:07:10.714Z,11.38
2019-05-29T02:09:37.371Z,11.75
2019-05-29T02:12:04.070Z,11.88
2019-05-29T02:14:30.638Z,12.98
2019-05-29T02:16:57.175Z,10.48
2019-05-29T02:19:24.029Z,9.98
2019-05-29T02:21:50.771Z,11.90
2019-05-29T02:24:17.434Z,10.82
2019-05-29T02:26:43.850Z,11.95
2019-05-29T02:29:10.254Z,10.38
2019-05-29T02:31:36.569Z,10.08
2019-05-29T02:34:07.245Z,10.15
2019-05-29T02:36:31.612Z,10.70
2019-05-29T02:38:58.187Z,10.63
2019-05-29T02:41:26.212Z,10.88
2019-05-29T02:43:52.950Z,10.43
2019-05-29T02:46:19.733Z,12.00
2019-05-29T02:48:47.604Z,9.10
2019-05-29T02:51:14.263Z,7.60
2019-05-29T02:53:40.645Z,9.83
2019-05-29T02:56:06.977Z,7.45
2019-05-29T02:58:33.565Z,7.45
2019-05-29T03:01:00.251Z,6.70
2019-05-29T03:03:29.454Z,6.33
2019-05-29T03:05:55.204Z,7.12
2019-05-29T03:08:22.321Z,6.70
2019-05-29T03:11:09.126Z,5.22
2019-05-29T03:13:35.816Z,5.47
2019-05-29T03:16:11.459Z,7.12
2019-05-29T03:18:32.575Z,8.08
2019-05-29T03:20:59.410Z,9.88
2019-05-29T03:23:28.966Z,6.97
2019-05-29T03:25:55.653Z,4.90
2019-05-29T03:28:22.501Z,4.62
2019-05-29T03:30:48.980Z,6.85
2019-05-29T03:33:15.551Z,7.45
2019-05-29T03:35:53.021Z,5.92
2019-05-29T03:38:19.573Z,4.10
2019-05-29T03:40:46.448Z,4.53
2019-05-29T03:43:12.955Z,4.33
2019-05-29T03:45:39.482Z,9.55
2019-05-29T03:48:06.178Z,9.55
2019-05-29T03:50:34.543Z,3.58
2019-05-29T03:53:01.272Z,5.62
2019-05-29T03:55:29.140Z,5.47
2019-05-29T03:57:56.097Z,6.40
2019-05-29T04:00:22.619Z,4.00
2019-05-29T04:02:49.231Z,4.75
2019-05-29T04:05:16.074Z,6.78
2019-05-29T04:07:42.635Z,2.77
2019-05-29T04:10:09.940Z,3.98
2019-05-29T04:12:38.015Z,3.25
2019-05-29T04:15:05.773Z,3.60
2019-05-29T04:17:33.767Z,5.22
2019-05-29T04:20:00.371Z,2.83
2019-05-29T04:22:32.426Z,2.37
2019-05-29T04:24:59.993Z,2.47
2019-05-29T04:27:27.926Z,2.37
2019-05-29T04:30:05.723Z,5.30
2019-05-29T04:32:32.370Z,3.77
2019-05-29T04:34:59.072Z,5.83
2019-05-29T04:37:25.755Z,4.10
2019-05-29T04:40:12.264Z,2.83
2019-05-29T04:42:40.163Z,2.15
2019-05-29T04:45:07.181Z,4.10
2019-05-29T04:47:35.093Z,1.67
2019-05-29T04:50:03.793Z,3.87
2019-05-29T04:52:31.416Z,4.10
2019-05-29T04:54:58.257Z,2.30
2019-05-29T04:57:24.696Z,2.47
2019-05-29T04:59:51.101Z,5.10
2019-05-29T05:02:17.578Z,1.57
2019-05-29T05:04:47.089Z,2.90
2019-05-29T05:07:13.544Z,7.80
2019-05-29T05:09:40.210Z,11.70
2019-05-29T05:12:06.799Z,5.65
2019-05-29T05:14:33.588Z,2.70
2019-05-29T05:17:00.035Z,8.00
2019-05-29T05:19:27.049Z,1.62
2019-05-29T05:21:53.570Z,3.22
2019-05-29T05:24:20.368Z,4.20
2019-05-29T05:26:47.102Z,3.58
2019-05-29T05:29:13.569Z,4.17
2019-05-29T05:31:40.851Z,3.40
2019-05-29T05:34:07.715Z,1.98
2019-05-29T05:36:34.711Z,3.05
2019-05-29T05:39:01.451Z,3.25
2019-05-29T05:41:28.080Z,3.45
2019-05-29T05:43:54.579Z,3.30
2019-05-29T05:46:24.225Z,3.60
2019-05-29T05:48:49.562Z,2.90
2019-05-29T05:51:16.295Z,2.33
2019-05-29T05:53:42.792Z,4.15
2019-05-29T05:56:09.671Z,3.10
2019-05-29T05:58:36.192Z,1.40
2019-05-29T06:01:03.508Z,8.20
2019-05-29T06:03:31.712Z,2.35
2019-05-29T06:05:58.526Z,5.87
2019-05-29T06:08:25.115Z,4.47
2019-05-29T06:10:51.675Z,7.45
2019-05-29T06:13:18.236Z,2.12
2019-05-29T06:15:44.919Z,4.10
2019-05-29T06:18:21.206Z,3.08
2019-05-29T06:20:40.892Z,2.27
2019-05-29T06:23:07.767Z,4.10
2019-05-29T06:25:36.316Z,5.15
2019-05-29T06:28:02.876Z,1.95
2019-05-29T06:30:29.532Z,2.65
2019-05-29T06:32:55.953Z,2.80
2019-05-29T06:48:53.615Z,2.30
2019-05-29T06:51:10.554Z,2.45
2019-05-29T06:53:37.716Z,3.45
2019-05-29T06:56:16.165Z,2.33
2019-05-29T06:58:44.348Z,4.83
2019-05-29T07:01:11.395Z,9.60
2019-05-29T07:03:37.782Z,7.42
2019-05-29T07:06:04.384Z,6.58
2019-05-29T07:08:38.874Z,5.97
2019-05-29T07:10:59.392Z,2.02
2019-05-29T07:13:25.947Z,1.70
2019-05-29T07:15:52.394Z,1.12
2019-05-29T07:18:18.949Z,1.22
2019-05-29T07:20:47.013Z,2.50
2019-05-29T07:23:14.668Z,1.20
2019-05-29T07:25:42.876Z,1.85
2019-05-29T07:28:09.636Z,0.95
2019-05-29T07:30:37.367Z,1.42
2019-05-29T07:33:04.219Z,4.45
2019-05-29T07:35:30.970Z,3.62
2019-05-29T07:37:57.690Z,0.75
2019-05-29T07:40:24.345Z,0.60
2019-05-29T07:42:56.072Z,0.53
2019-05-29T07:45:20.499Z,1.20
2019-05-29T07:47:48.447Z,1.32
2019-05-29T07:50:15.732Z,1.92
2019-05-29T07:52:43.365Z,1.87
2019-05-29T07:55:11.919Z,2.92
2019-05-29T07:57:38.877Z,3.30
2019-05-29T08:00:08.299Z,1.27
2019-05-29T08:02:35.647Z,1.20
2019-05-29T08:05:03.273Z,0.85
2019-05-29T08:07:29.940Z,1.00
2019-05-29T08:09:56.527Z,0.90
2019-05-29T08:12:23.104Z,0.45
2019-05-29T08:14:50.260Z,1.75
2019-05-29T08:17:17.428Z,1.55
2019-05-29T08:19:59.331Z,0.53
2019-05-29T08:22:13.351Z,0.62
2019-05-29T08:24:59.518Z,2.25
2019-05-29T08:27:26.396Z,0.55
2019-05-29T08:29:53.159Z,0.90
2019-05-29T08:32:19.573Z,1.32
2019-05-29T08:34:47.044Z,0.78
2019-05-29T08:37:13.618Z,2.98
2019-05-29T08:39:41.187Z,1.35
2019-05-29T08:42:22.689Z,0.80
2019-05-29T08:44:36.518Z,0.68
2019-05-29T08:47:10.157Z,0.70
2019-05-29T08:49:31.582Z,2.35
2019-05-29T08:52:12.573Z,3.47
2019-05-29T08:54:39.170Z,1.20
2019-05-29T08:57:05.660Z,0.80
2019-05-29T08:59:32.236Z,3.00
2019-05-29T09:01:58.950Z,1.85
2019-05-29T09:04:25.329Z,2.10
2019-05-29T09:06:53.368Z,2.15
2019-05-29T09:09:20.185Z,1.20
2019-05-29T09:11:47.585Z,1.50
2019-05-29T09:14:14.332Z,0.72
2019-05-29T09:16:40.862Z,0.68
2019-05-29T09:19:07.322Z,6.85
2019-05-29T09:21:33.977Z,0.82
2019-05-29T09:24:00.607Z,3.22
2019-05-29T09:26:27.270Z,1.72
2019-05-29T09:28:53.965Z,2.62
2019-05-29T09:31:21.904Z,0.30
2019-05-29T09:33:49.855Z,0.90
2019-05-29T09:36:17.171Z,0.98
2019-05-29T09:38:44.899Z,0.70
2019-05-29T09:41:11.685Z,2.83
2019-05-29T09:43:38.270Z,0.85
2019-05-29T09:46:04.683Z,2.02
2019-05-29T09:48:31.319Z,0.30
2019-05-29T09:50:57.900Z,0.40
2019-05-29T09:53:24.416Z,1.20
2019-05-29T09:55:52.029Z,0.80
2019-05-29T09:58:19.351Z,0.82
2019-05-29T10:00:46.053Z,1.85
2019-05-29T10:03:12.657Z,0.57
2019-05-29T10:05:39.336Z,0.57
2019-05-29T10:08:06.840Z,0.57
2019-05-29T10:10:33.203Z,0.68
2019-05-29T10:13:00.115Z,0.88
2019-05-29T10:15:26.896Z,0.57
2019-05-29T10:17:54.103Z,0.80
2019-05-29T10:20:21.979Z,2.92
2019-05-29T10:22:49.841Z,0.93
2019-05-29T10:25:16.933Z,1.05
2019-05-29T10:27:43.515Z,4.37
2019-05-29T10:30:12.321Z,2.22
2019-05-29T10:32:38.827Z,1.60
2019-05-29T10:35:06.644Z,1.67
2019-05-29T10:37:33.311Z,0.88
2019-05-29T10:40:00.072Z,1.20
2019-05-29T10:42:27.162Z,1.52
2019-05-29T10:44:53.919Z,3.15
2019-05-29T10:47:20.209Z,2.12
2019-05-29T10:49:47.658Z,2.15
2019-05-29T10:52:17.195Z,0.93
2019-05-29T10:54:44.014Z,0.95
2019-05-29T10:57:30.478Z,1.30
2019-05-29T10:59:57.186Z,1.02
2019-05-29T11:02:23.712Z,1.35
2019-05-29T11:04:54.590Z,0.78
2019-05-29T11:07:18.584Z,2.05
2019-05-29T11:09:46.747Z,0.45
2019-05-29T11:12:13.378Z,0.68
2019-05-29T11:14:40.097Z,0.70
2019-05-29T11:17:06.723Z,1.12
2019-05-29T11:19:33.322Z,1.05
2019-05-29T11:22:16.547Z,0.50
2019-05-29T11:24:30.739Z,1.77
2019-05-29T11:26:58.845Z,0.75
2019-05-29T11:29:25.560Z,0.80
2019-05-29T11:31:53.411Z,1.52
2019-05-29T11:34:20.560Z,4.08
2019-05-29T11:36:47.214Z,3.35
2019-05-29T11:39:14.000Z,6.58
2019-05-29T11:41:40.394Z,3.42
2019-05-29T11:44:07.135Z,3.02
2019-05-29T11:46:33.659Z,2.58
2019-05-29T11:49:00.085Z,1.42
2019-05-29T11:51:26.533Z,1.05
2019-05-29T11:53:53.523Z,2.70
2019-05-29T11:56:20.173Z,4.25
2019-05-29T11:58:47.600Z,12.30
2019-05-29T12:01:14.291Z,2.50
2019-05-29T12:04:05.399Z,3.33
2019-05-29T12:06:09.179Z,0.75
2019-05-29T12:08:35.639Z,0.78
2019-05-29T12:11:02.419Z,1.90
2019-05-29T12:13:28.856Z,11.97
2019-05-29T12:15:55.947Z,14.85
2019-05-29T12:18:24.447Z,2.62
2019-05-29T12:20:52.073Z,3.33
2019-05-29T12:23:26.405Z,3.22
2019-05-29T12:25:46.961Z,4.35
2019-05-29T12:28:13.593Z,3.70
2019-05-29T12:30:40.269Z,4.12
2019-05-29T12:33:06.816Z,4.42
2019-05-29T12:35:33.659Z,2.02
2019-05-29T12:38:01.391Z,2.25
2019-05-29T12:40:28.186Z,2.70
2019-05-29T12:42:55.719Z,3.90
2019-05-29T12:45:35.626Z,3.72
2019-05-29T12:48:06.453Z,6.83
2019-05-29T12:50:41.539Z,3.25
2019-05-29T12:53:08.880Z,2.83
2019-05-29T12:55:35.642Z,9.35
2019-05-29T12:58:02.386Z,1.98
2019-05-29T13:00:29.366Z,4.08
2019-05-29T13:03:03.162Z,1.10
2019-05-29T13:05:51.264Z,1.60
2019-05-29T13:08:18.917Z,4.53
2019-05-29T13:10:45.533Z,10.55
2019-05-29T13:13:12.356Z,2.33
2019-05-29T13:15:39.103Z,1.77
2019-05-29T13:18:09.719Z,1.52
2019-05-29T13:20:34.155Z,4.60
2019-05-29T13:23:02.955Z,2.00
2019-05-29T13:25:29.386Z,0.95
2019-05-29T13:28:01.165Z,2.33
2019-05-29T13:30:28.302Z,0.60
2019-05-29T13:32:58.951Z,1.37
2019-05-29T13:35:23.464Z,1.42
2019-05-29T13:37:50.307Z,1.00
2019-05-29T13:40:18.335Z,4.47
2019-05-29T13:42:44.847Z,8.25
2019-05-29T13:45:17.885Z,1.65
2019-05-29T13:47:40.707Z,0.82
2019-05-29T13:50:11.925Z,1.57
2019-05-29T13:52:39.882Z,3.27
2019-05-29T13:55:07.685Z,1.05
2019-05-29T13:57:34.352Z,0.55
2019-05-29T14:00:04.639Z,0.72
2019-05-29T14:02:29.956Z,0.70
2019-05-29T14:04:56.516Z,2.15
2019-05-29T14:07:23.160Z,1.30
2019-05-29T14:09:49.807Z,0.80
2019-05-29T14:12:16.223Z,2.15
2019-05-29T14:14:42.814Z,0.95
2019-05-29T14:17:09.427Z,2.17
2019-05-29T14:19:36.004Z,2.12
2019-05-29T14:22:02.988Z,5.05
2019-05-29T14:24:40.395Z,11.00
2019-05-29T14:27:07.491Z,12.80
2019-05-29T14:29:45.206Z,13.03
2019-05-29T14:32:13.413Z,9.73
2019-05-29T14:34:40.283Z,4.58
2019-05-29T14:37:07.950Z,4.80
2019-05-29T14:39:34.505Z,2.90
2019-05-29T14:42:01.695Z,2.05
2019-05-29T14:44:28.553Z,1.32
2019-05-29T14:46:55.225Z,1.47
2019-05-29T14:49:21.889Z,2.40
2019-05-29T14:51:48.341Z,2.42
2019-05-29T14:54:14.899Z,1.15
2019-05-29T14:56:41.635Z,2.50
2019-05-29T14:59:09.333Z,2.05
2019-05-29T15:01:37.516Z,0.75
2019-05-29T15:04:05.386Z,1.82
2019-05-29T15:06:32.450Z,4.60
2019-05-29T15:08:58.991Z,1.42
2019-05-29T15:11:25.514Z,7.00
2019-05-29T15:13:52.299Z,3.75
2019-05-29T15:16:18.822Z,3.20
2019-05-29T15:18:45.384Z,1.95
2019-05-29T15:21:13.118Z,2.85
2019-05-29T15:23:39.874Z,1.75
2019-05-29T15:26:07.491Z,2.12
2019-05-29T15:28:34.441Z,1.35
2019-05-29T15:31:00.988Z,0.30
2019-05-29T15:33:40.887Z,1.85
2019-05-29T15:36:08.547Z,2.00
2019-05-29T15:38:35.208Z,0.88
2019-05-29T15:41:02.229Z,0.93
2019-05-29T15:43:28.946Z,0.82
2019-05-29T15:45:55.768Z,2.27
2019-05-29T15:48:22.308Z,1.12
2019-05-29T15:50:48.900Z,3.47
2019-05-29T15:53:15.516Z,0.98
2019-05-29T15:55:42.262Z,1.25
2019-05-29T15:58:09.118Z,1.00
2019-05-29T16:00:35.746Z,2.17
2019-05-29T16:03:02.562Z,2.08
2019-05-29T16:05:29.142Z,0.75
2019-05-29T16:07:55.592Z,1.85
2019-05-29T16:10:22.391Z,0.70
2019-05-29T16:12:49.531Z,1.95
2019-05-29T16:15:17.467Z,0.62
2019-05-29T16:17:45.286Z,0.68
2019-05-29T16:20:12.580Z,2.70
2019-05-29T16:22:43.100Z,1.35
2019-05-29T16:25:12.674Z,2.25
2019-05-29T16:27:39.441Z,0.28
2019-05-29T16:30:08.070Z,1.47
2019-05-29T16:32:35.812Z,1.37
2019-05-29T16:35:05.455Z,2.98
2019-05-29T16:37:32.108Z,1.00
2019-05-29T16:39:58.668Z,1.30
2019-05-29T16:42:25.217Z,1.35
2019-05-29T16:44:53.780Z,5.53
2019-05-29T16:47:20.504Z,1.62
2019-05-29T16:49:47.452Z,2.10
2019-05-29T16:52:14.928Z,1.27
2019-05-29T16:54:52.441Z,4.78
2019-05-29T16:57:19.238Z,7.53
2019-05-29T16:59:48.519Z,7.30
2019-05-29T17:02:15.658Z,6.65
2019-05-29T17:04:42.688Z,4.25
2019-05-29T17:07:09.337Z,2.65
2019-05-29T17:09:36.095Z,3.00
2019-05-29T17:12:02.807Z,1.27
2019-05-29T17:14:29.342Z,3.58
2019-05-29T17:17:16.784Z,2.70
2019-05-29T17:19:43.544Z,2.98
2019-05-29T17:22:11.432Z,3.12
2019-05-29T17:24:39.183Z,1.70
2019-05-29T17:27:06.105Z,1.07
2019-05-29T17:29:33.077Z,0.98
2019-05-29T17:32:01.366Z,1.95
2019-05-29T17:34:27.982Z,2.08
2019-05-29T17:36:54.772Z,3.60
2019-05-29T17:39:21.433Z,2.02
2019-05-29T17:41:48.492Z,2.92
2019-05-29T17:44:15.417Z,4.40
2019-05-29T17:46:42.184Z,3.50
2019-05-29T17:49:08.869Z,7.67
2019-05-29T17:51:35.466Z,39.88
2019-05-29T17:54:02.373Z,14.98
2019-05-29T17:56:36.333Z,18.52
2019-05-29T17:58:59.086Z,12.07
2019-05-29T18:01:26.593Z,19.10
2019-05-29T18:03:54.293Z,18.87
2019-05-29T18:06:22.304Z,12.90
2019-05-29T18:08:49.253Z,11.28
2019-05-29T18:11:16.966Z,11.22
2019-05-29T18:13:45.256Z,12.23
2019-05-29T18:16:12.812Z,18.65
2019-05-29T18:18:39.476Z,5.35
2019-05-29T18:21:19.594Z,4.70
2019-05-29T18:23:46.350Z,3.15
2019-05-29T18:26:12.933Z,6.83
2019-05-29T18:28:40.635Z,6.22
2019-05-29T18:31:07.314Z,9.78
2019-05-29T18:33:34.025Z,12.07
2019-05-29T18:36:00.722Z,14.23
2019-05-29T18:38:28.656Z,10.28
2019-05-29T18:40:55.293Z,7.05
2019-05-29T18:43:34.871Z,7.95
2019-05-29T18:46:15.033Z,4.75
2019-05-29T18:48:41.692Z,10.98
2019-05-29T18:51:08.137Z,7.28
2019-05-29T18:53:34.882Z,19.00
2019-05-29T18:56:02.530Z,15.13
2019-05-29T18:58:30.753Z,7.78
2019-05-29T19:01:10.909Z,7.12
2019-05-29T19:03:40.405Z,5.92
2019-05-29T19:06:08.147Z,4.90
2019-05-29T19:08:34.683Z,4.85
2019-05-29T19:11:01.294Z,6.67
2019-05-29T19:13:41.128Z,3.80
2019-05-29T19:16:07.718Z,9.33
2019-05-29T19:18:34.351Z,8.60
2019-05-29T19:21:01.042Z,9.53
2019-05-29T19:23:28.777Z,36.15
2019-05-29T19:26:01.809Z,2.85
2019-05-29T19:28:48.149Z,4.20
2019-05-29T19:31:15.594Z,2.15
2019-05-29T19:33:42.515Z,3.83
2019-05-29T19:36:09.181Z,3.05
2019-05-29T19:38:36.840Z,5.53
2019-05-29T19:41:16.267Z,11.48
2019-05-29T19:43:42.907Z,7.25
2019-05-29T19:46:09.387Z,4.95
2019-05-29T19:48:36.210Z,11.18
2019-05-29T19:51:03.040Z,11.63
2019-05-29T19:53:33.548Z,12.37
2019-05-29T19:56:00.359Z,11.88
2019-05-29T19:58:27.703Z,5.97
2019-05-29T20:01:05.643Z,5.30
2019-05-29T20:03:32.607Z,4.67
2019-05-29T20:05:59.590Z,5.55
2019-05-29T20:08:27.039Z,5.37
2019-05-29T20:10:54.214Z,9.85
2019-05-29T20:13:20.946Z,9.25
2019-05-29T20:15:47.643Z,18.90
2019-05-29T20:18:14.045Z,18.35
2019-05-29T20:20:40.950Z,9.95
2019-05-29T20:23:07.620Z,4.78
2019-05-29T20:25:34.992Z,11.88
2019-05-29T20:28:06.272Z,8.95
2019-05-29T20:30:30.541Z,8.20
2019-05-29T20:32:57.352Z,12.58
2019-05-29T20:35:44.215Z,8.73
2019-05-29T20:38:10.715Z,3.83
2019-05-29T20:40:37.583Z,5.40
2019-05-29T20:43:06.529Z,4.12
2019-05-29T20:45:33.397Z,7.33
2019-05-29T20:48:00.558Z,4.12
2019-05-29T20:50:27.494Z,6.47
2019-05-29T20:53:13.957Z,4.72
2019-05-29T20:55:43.844Z,3.25
2019-05-29T20:58:23.969Z,8.98
2019-05-29T21:00:40.365Z,3.72
2019-05-29T21:03:07.448Z,7.33
2019-05-29T21:05:34.596Z,7.37
2019-05-29T21:08:01.644Z,5.42
2019-05-29T21:10:29.673Z,5.58
2019-05-29T21:12:56.250Z,5.92
2019-05-29T21:15:22.668Z,4.60
2019-05-29T21:17:49.378Z,9.30
2019-05-29T21:20:17.428Z,6.92
2019-05-29T21:22:44.963Z,7.50
2019-05-29T21:25:17.368Z,5.00
2019-05-29T21:27:43.807Z,4.28
2019-05-29T21:30:09.966Z,8.48
2019-05-29T21:32:37.835Z,5.03
2019-05-29T21:35:06.165Z,6.60
2019-05-29T21:37:32.614Z,10.05
2019-05-29T21:40:00.510Z,5.80
2019-05-29T21:42:28.306Z,9.68
2019-05-29T21:44:56.222Z,5.05
2019-05-29T21:47:23.254Z,4.85
2019-05-29T21:49:49.862Z,8.40
2019-05-29T21:52:27.100Z,4.67
2019-05-29T21:54:53.711Z,11.68
2019-05-29T21:57:20.289Z,6.47
2019-05-29T21:59:50.358Z,5.87
2019-05-29T22:02:38.149Z,4.83
2019-05-29T22:05:05.752Z,5.60
2019-05-29T22:07:32.371Z,7.00
2019-05-29T22:09:58.843Z,5.37
2019-05-29T22:12:25.436Z,7.00
2019-05-29T22:14:53.281Z,6.60
2019-05-29T22:17:20.392Z,8.48
2019-05-29T22:19:46.933Z,5.37
2019-05-29T22:22:13.526Z,7.20
2019-05-29T22:24:59.856Z,5.47
2019-05-29T22:27:26.461Z,8.88
2019-05-29T22:29:53.567Z,6.83
2019-05-29T22:32:33.352Z,7.22
2019-05-29T22:34:59.999Z,8.33
2019-05-29T22:37:26.599Z,8.90
2019-05-29T22:39:53.596Z,8.60
2019-05-29T22:42:40.476Z,7.58
2019-05-29T22:45:07.469Z,7.70
2019-05-29T22:47:34.099Z,9.05
2019-05-29T22:50:01.856Z,9.80
2019-05-29T22:52:29.175Z,8.73
2019-05-29T22:54:55.852Z,10.03
2019-05-29T22:57:44.181Z,7.70
2019-05-29T23:00:11.643Z,12.30
2019-05-29T23:02:38.249Z,9.33
2019-05-29T23:05:06.142Z,9.28
2019-05-29T23:07:32.815Z,12.60
2019-05-29T23:10:00.623Z,11.35
2019-05-29T23:12:27.542Z,8.83
2019-05-29T23:14:54.465Z,8.90
2019-05-29T23:17:21.164Z,7.78
2019-05-29T23:20:07.766Z,8.88
2019-05-29T23:22:34.494Z,8.73
2019-05-29T23:25:01.037Z,8.90
2019-05-29T23:27:27.505Z,8.70
2019-05-29T23:29:56.797Z,10.05
2019-05-29T23:32:23.525Z,10.65
2019-05-29T23:34:50.128Z,12.55
2019-05-29T23:37:16.606Z,8.38
2019-05-29T23:39:43.207Z,8.93
2019-05-29T23:42:09.826Z,9.13
2019-05-29T23:44:36.897Z,9.20
2019-05-29T23:47:23.249Z,8.98
2019-05-29T23:49:51.145Z,9.38
2019-05-29T23:52:17.618Z,8.88
2019-05-29T23:54:44.081Z,9.13
2019-05-29T23:57:10.691Z,10.13
2019-05-29T23:59:38.269Z,8.80
